sensor_id;sensor_type;location;lat;lon;timestamp;P1;durP1;ratioP1;P2;durP2;ratioP2
26951;SDS011;14507;52.418;13.398;2023-12-04T00:00:26;53.63;;;22.50;;
26951;SDS011;14507;52.418;13.398;2023-12-04T00:02:52;52.40;;;23.15;;
26951;SDS011;14507;52.418;13.398;2023-12-04T00:05:17;51.35;;;22.83;;
26951;SDS011;14507;52.418;13.398;2023-12-04T00:07:43;50.42;;;22.27;;
26951;SDS011;14507;52.418;13.398;2023-12-04T00:10:09;52.00;;;23.17;;
26951;SDS011;14507;52.418;13.398;2023-12-04T00:12:34;55.25;;;24.10;;
26951;SDS011;14507;52.418;13.398;2023-12-04T00:15:00;52.75;;;23.95;;
26951;SDS011;14507;52.418;13.398;2023-12-04T00:17:26;49.88;;;22.60;;
26951;SDS011;14507;52.418;13.398;2023-12-04T00:19:51;55.58;;;23.55;;
26951;SDS011;14507;52.418;13.398;2023-12-04T00:22:17;52.75;;;23.25;;
26951;SDS011;14507;52.418;13.398;2023-12-04T00:24:42;56.28;;;24.58;;
26951;SDS011;14507;52.418;13.398;2023-12-04T00:27:08;57.38;;;24.77;;
26951;SDS011;14507;52.418;13.398;2023-12-04T00:29:34;51.75;;;23.73;;
26951;SDS011;14507;52.418;13.398;2023-12-04T00:31:59;56.03;;;25.02;;
26951;SDS011;14507;52.418;13.398;2023-12-04T00:34:25;54.88;;;23.10;;
26951;SDS011;14507;52.418;13.398;2023-12-04T00:36:50;54.80;;;23.15;;
26951;SDS011;14507;52.418;13.398;2023-12-04T00:39:16;52.83;;;23.75;;
26951;SDS011;14507;52.418;13.398;2023-12-04T00:41:42;57.20;;;24.05;;
26951;SDS011;14507;52.418;13.398;2023-12-04T00:44:08;52.42;;;22.80;;
26951;SDS011;14507;52.418;13.398;2023-12-04T00:46:33;51.80;;;23.52;;
26951;SDS011;14507;52.418;13.398;2023-12-04T00:48:59;53.30;;;23.77;;
26951;SDS011;14507;52.418;13.398;2023-12-04T00:51:24;54.70;;;22.52;;
26951;SDS011;14507;52.418;13.398;2023-12-04T00:53:51;51.80;;;22.83;;
26951;SDS011;14507;52.418;13.398;2023-12-04T00:56:17;47.50;;;22.00;;
26951;SDS011;14507;52.418;13.398;2023-12-04T00:58:43;52.85;;;23.25;;
26951;SDS011;14507;52.418;13.398;2023-12-04T01:01:12;59.30;;;23.20;;
26951;SDS011;14507;52.418;13.398;2023-12-04T01:03:38;55.10;;;23.63;;
26951;SDS011;14507;52.418;13.398;2023-12-04T01:06:05;56.97;;;23.50;;
26951;SDS011;14507;52.418;13.398;2023-12-04T01:08:30;48.83;;;21.60;;
26951;SDS011;14507;52.418;13.398;2023-12-04T01:10:56;52.63;;;22.45;;
26951;SDS011;14507;52.418;13.398;2023-12-04T01:13:22;53.33;;;22.50;;
26951;SDS011;14507;52.418;13.398;2023-12-04T01:15:47;54.88;;;22.45;;
26951;SDS011;14507;52.418;13.398;2023-12-04T01:18:13;55.95;;;22.77;;
26951;SDS011;14507;52.418;13.398;2023-12-04T01:20:39;52.03;;;22.60;;
26951;SDS011;14507;52.418;13.398;2023-12-04T01:23:05;49.70;;;21.70;;
26951;SDS011;14507;52.418;13.398;2023-12-04T01:25:31;51.80;;;21.50;;
26951;SDS011;14507;52.418;13.398;2023-12-04T01:27:56;52.60;;;21.75;;
26951;SDS011;14507;52.418;13.398;2023-12-04T01:30:22;50.08;;;22.92;;
26951;SDS011;14507;52.418;13.398;2023-12-04T01:32:48;50.80;;;22.05;;
26951;SDS011;14507;52.418;13.398;2023-12-04T01:35:13;52.08;;;22.00;;
26951;SDS011;14507;52.418;13.398;2023-12-04T01:37:39;53.05;;;23.42;;
26951;SDS011;14507;52.418;13.398;2023-12-04T01:40:05;48.55;;;21.85;;
26951;SDS011;14507;52.418;13.398;2023-12-04T01:42:32;54.53;;;23.23;;
26951;SDS011;14507;52.418;13.398;2023-12-04T01:44:57;51.80;;;21.75;;
26951;SDS011;14507;52.418;13.398;2023-12-04T01:47:23;54.67;;;23.30;;
26951;SDS011;14507;52.418;13.398;2023-12-04T01:49:49;56.10;;;22.88;;
26951;SDS011;14507;52.418;13.398;2023-12-04T01:52:15;47.00;;;22.13;;
26951;SDS011;14507;52.418;13.398;2023-12-04T01:54:41;55.88;;;23.13;;
26951;SDS011;14507;52.418;13.398;2023-12-04T01:57:07;55.15;;;23.00;;
26951;SDS011;14507;52.418;13.398;2023-12-04T01:59:34;50.80;;;22.50;;
26951;SDS011;14507;52.418;13.398;2023-12-04T02:02:01;58.92;;;24.15;;
26951;SDS011;14507;52.418;13.398;2023-12-04T02:04:27;55.22;;;22.98;;
26951;SDS011;14507;52.418;13.398;2023-12-04T02:06:53;55.35;;;22.48;;
26951;SDS011;14507;52.418;13.398;2023-12-04T02:09:19;52.97;;;22.02;;
26951;SDS011;14507;52.418;13.398;2023-12-04T02:11:45;60.83;;;24.77;;
26951;SDS011;14507;52.418;13.398;2023-12-04T02:14:10;54.25;;;23.98;;
26951;SDS011;14507;52.418;13.398;2023-12-04T02:16:38;58.30;;;24.30;;
26951;SDS011;14507;52.418;13.398;2023-12-04T02:19:12;51.28;;;22.25;;
26951;SDS011;14507;52.418;13.398;2023-12-04T02:21:38;55.45;;;24.15;;
26951;SDS011;14507;52.418;13.398;2023-12-04T02:24:04;58.55;;;25.05;;
26951;SDS011;14507;52.418;13.398;2023-12-04T02:26:34;55.78;;;23.40;;
26951;SDS011;14507;52.418;13.398;2023-12-04T02:29:11;54.42;;;23.95;;
26951;SDS011;14507;52.418;13.398;2023-12-04T02:31:42;60.03;;;24.85;;
26951;SDS011;14507;52.418;13.398;2023-12-04T02:34:09;62.55;;;26.25;;
26951;SDS011;14507;52.418;13.398;2023-12-04T02:36:38;60.90;;;24.75;;
26951;SDS011;14507;52.418;13.398;2023-12-04T02:39:05;60.85;;;25.23;;
26951;SDS011;14507;52.418;13.398;2023-12-04T02:41:31;54.80;;;23.75;;
26951;SDS011;14507;52.418;13.398;2023-12-04T02:43:57;61.88;;;25.77;;
26951;SDS011;14507;52.418;13.398;2023-12-04T02:46:23;57.40;;;24.27;;
26951;SDS011;14507;52.418;13.398;2023-12-04T02:48:48;58.78;;;24.67;;
26951;SDS011;14507;52.418;13.398;2023-12-04T02:51:14;58.42;;;24.00;;
26951;SDS011;14507;52.418;13.398;2023-12-04T02:53:40;56.42;;;24.20;;
26951;SDS011;14507;52.418;13.398;2023-12-04T02:56:05;56.08;;;23.48;;
26951;SDS011;14507;52.418;13.398;2023-12-04T02:58:31;60.22;;;24.42;;
26951;SDS011;14507;52.418;13.398;2023-12-04T03:00:59;58.05;;;24.63;;
26951;SDS011;14507;52.418;13.398;2023-12-04T03:03:25;58.40;;;25.15;;
26951;SDS011;14507;52.418;13.398;2023-12-04T03:05:50;57.72;;;23.90;;
26951;SDS011;14507;52.418;13.398;2023-12-04T03:08:16;59.08;;;24.15;;
26951;SDS011;14507;52.418;13.398;2023-12-04T03:10:41;61.50;;;25.05;;
26951;SDS011;14507;52.418;13.398;2023-12-04T03:13:07;58.83;;;24.33;;
26951;SDS011;14507;52.418;13.398;2023-12-04T03:15:33;61.22;;;24.67;;
26951;SDS011;14507;52.418;13.398;2023-12-04T03:17:59;59.85;;;24.65;;
26951;SDS011;14507;52.418;13.398;2023-12-04T03:20:26;61.35;;;26.73;;
26951;SDS011;14507;52.418;13.398;2023-12-04T03:22:51;68.00;;;26.23;;
26951;SDS011;14507;52.418;13.398;2023-12-04T03:25:17;61.92;;;25.83;;
26951;SDS011;14507;52.418;13.398;2023-12-04T03:27:42;64.88;;;26.67;;
26951;SDS011;14507;52.418;13.398;2023-12-04T03:30:08;68.38;;;25.75;;
26951;SDS011;14507;52.418;13.398;2023-12-04T03:32:34;63.63;;;26.63;;
26951;SDS011;14507;52.418;13.398;2023-12-04T03:35:00;65.40;;;26.58;;
26951;SDS011;14507;52.418;13.398;2023-12-04T03:37:26;68.70;;;25.63;;
26951;SDS011;14507;52.418;13.398;2023-12-04T03:39:52;58.95;;;24.88;;
26951;SDS011;14507;52.418;13.398;2023-12-04T03:42:17;62.10;;;26.02;;
26951;SDS011;14507;52.418;13.398;2023-12-04T03:44:43;60.08;;;25.20;;
26951;SDS011;14507;52.418;13.398;2023-12-04T03:47:11;65.95;;;25.92;;
26951;SDS011;14507;52.418;13.398;2023-12-04T03:49:37;54.28;;;23.35;;
26951;SDS011;14507;52.418;13.398;2023-12-04T03:52:02;58.40;;;23.75;;
26951;SDS011;14507;52.418;13.398;2023-12-04T03:54:34;61.30;;;24.05;;
26951;SDS011;14507;52.418;13.398;2023-12-04T03:57:00;58.65;;;25.45;;
26951;SDS011;14507;52.418;13.398;2023-12-04T03:59:25;59.33;;;24.88;;
26951;SDS011;14507;52.418;13.398;2023-12-04T04:01:51;62.72;;;24.48;;
26951;SDS011;14507;52.418;13.398;2023-12-04T04:04:17;64.15;;;25.05;;
26951;SDS011;14507;52.418;13.398;2023-12-04T04:06:42;64.45;;;25.65;;
26951;SDS011;14507;52.418;13.398;2023-12-04T04:09:08;58.47;;;23.77;;
26951;SDS011;14507;52.418;13.398;2023-12-04T04:11:34;58.85;;;24.23;;
26951;SDS011;14507;52.418;13.398;2023-12-04T04:14:00;58.45;;;24.75;;
26951;SDS011;14507;52.418;13.398;2023-12-04T04:16:26;57.13;;;23.50;;
26951;SDS011;14507;52.418;13.398;2023-12-04T04:18:51;55.30;;;22.75;;
26951;SDS011;14507;52.418;13.398;2023-12-04T04:21:17;55.15;;;23.52;;
26951;SDS011;14507;52.418;13.398;2023-12-04T04:23:42;59.00;;;23.73;;
26951;SDS011;14507;52.418;13.398;2023-12-04T04:26:08;58.45;;;24.50;;
26951;SDS011;14507;52.418;13.398;2023-12-04T04:28:33;54.55;;;23.65;;
26951;SDS011;14507;52.418;13.398;2023-12-04T04:30:59;59.22;;;24.10;;
26951;SDS011;14507;52.418;13.398;2023-12-04T04:33:25;54.53;;;23.15;;
26951;SDS011;14507;52.418;13.398;2023-12-04T04:35:50;58.35;;;24.38;;
26951;SDS011;14507;52.418;13.398;2023-12-04T04:38:16;54.30;;;23.10;;
26951;SDS011;14507;52.418;13.398;2023-12-04T04:40:41;58.47;;;24.27;;
26951;SDS011;14507;52.418;13.398;2023-12-04T04:43:09;59.00;;;25.08;;
26951;SDS011;14507;52.418;13.398;2023-12-04T04:45:36;51.78;;;22.92;;
26951;SDS011;14507;52.418;13.398;2023-12-04T04:48:01;59.70;;;24.77;;
26951;SDS011;14507;52.418;13.398;2023-12-04T04:50:27;57.33;;;24.40;;
26951;SDS011;14507;52.418;13.398;2023-12-04T04:52:52;53.45;;;23.58;;
26951;SDS011;14507;52.418;13.398;2023-12-04T04:55:18;55.33;;;24.38;;
26951;SDS011;14507;52.418;13.398;2023-12-04T04:57:44;51.60;;;23.65;;
26951;SDS011;14507;52.418;13.398;2023-12-04T05:00:09;57.35;;;24.40;;
26951;SDS011;14507;52.418;13.398;2023-12-04T05:02:36;61.05;;;23.88;;
26951;SDS011;14507;52.418;13.398;2023-12-04T05:05:02;57.17;;;23.45;;
26951;SDS011;14507;52.418;13.398;2023-12-04T05:07:29;58.75;;;23.95;;
26951;SDS011;14507;52.418;13.398;2023-12-04T05:09:55;55.13;;;23.35;;
26951;SDS011;14507;52.418;13.398;2023-12-04T05:12:24;59.65;;;24.27;;
26951;SDS011;14507;52.418;13.398;2023-12-04T05:14:49;61.67;;;23.65;;
26951;SDS011;14507;52.418;13.398;2023-12-04T05:17:15;50.80;;;22.63;;
26951;SDS011;14507;52.418;13.398;2023-12-04T05:19:40;51.60;;;22.38;;
26951;SDS011;14507;52.418;13.398;2023-12-04T05:22:06;59.85;;;23.85;;
26951;SDS011;14507;52.418;13.398;2023-12-04T05:24:32;56.30;;;23.88;;
26951;SDS011;14507;52.418;13.398;2023-12-04T05:26:58;57.28;;;24.85;;
26951;SDS011;14507;52.418;13.398;2023-12-04T05:29:23;59.92;;;23.90;;
26951;SDS011;14507;52.418;13.398;2023-12-04T05:31:49;57.42;;;24.42;;
26951;SDS011;14507;52.418;13.398;2023-12-04T05:34:14;54.65;;;24.98;;
26951;SDS011;14507;52.418;13.398;2023-12-04T05:36:40;51.03;;;22.45;;
26951;SDS011;14507;52.418;13.398;2023-12-04T05:39:06;57.58;;;24.58;;
26951;SDS011;14507;52.418;13.398;2023-12-04T05:41:32;63.00;;;24.88;;
26951;SDS011;14507;52.418;13.398;2023-12-04T05:43:57;63.92;;;23.60;;
26951;SDS011;14507;52.418;13.398;2023-12-04T05:46:23;61.85;;;25.05;;
26951;SDS011;14507;52.418;13.398;2023-12-04T05:48:48;70.30;;;27.15;;
26951;SDS011;14507;52.418;13.398;2023-12-04T05:51:14;60.63;;;25.20;;
26951;SDS011;14507;52.418;13.398;2023-12-04T05:53:40;62.67;;;26.23;;
26951;SDS011;14507;52.418;13.398;2023-12-04T05:56:06;64.07;;;25.88;;
26951;SDS011;14507;52.418;13.398;2023-12-04T05:58:34;59.35;;;25.00;;
26951;SDS011;14507;52.418;13.398;2023-12-04T06:00:59;56.28;;;24.40;;
26951;SDS011;14507;52.418;13.398;2023-12-04T06:03:25;63.20;;;25.67;;
26951;SDS011;14507;52.418;13.398;2023-12-04T06:05:51;58.17;;;24.50;;
26951;SDS011;14507;52.418;13.398;2023-12-04T06:08:19;60.30;;;25.05;;
26951;SDS011;14507;52.418;13.398;2023-12-04T06:10:45;63.53;;;27.50;;
26951;SDS011;14507;52.418;13.398;2023-12-04T06:13:11;60.75;;;26.52;;
26951;SDS011;14507;52.418;13.398;2023-12-04T06:15:37;60.35;;;25.23;;
26951;SDS011;14507;52.418;13.398;2023-12-04T06:18:02;61.97;;;24.88;;
26951;SDS011;14507;52.418;13.398;2023-12-04T06:20:29;61.10;;;25.38;;
26951;SDS011;14507;52.418;13.398;2023-12-04T06:22:55;65.55;;;26.17;;
26951;SDS011;14507;52.418;13.398;2023-12-04T06:25:21;64.75;;;27.08;;
26951;SDS011;14507;52.418;13.398;2023-12-04T06:27:47;60.50;;;25.92;;
26951;SDS011;14507;52.418;13.398;2023-12-04T06:30:13;61.17;;;27.27;;
26951;SDS011;14507;52.418;13.398;2023-12-04T06:32:39;58.58;;;25.00;;
26951;SDS011;14507;52.418;13.398;2023-12-04T06:35:05;63.17;;;25.35;;
26951;SDS011;14507;52.418;13.398;2023-12-04T06:37:32;59.13;;;23.65;;
26951;SDS011;14507;52.418;13.398;2023-12-04T06:39:59;59.42;;;26.17;;
26951;SDS011;14507;52.418;13.398;2023-12-04T06:42:27;56.15;;;24.10;;
26951;SDS011;14507;52.418;13.398;2023-12-04T06:44:53;60.58;;;25.25;;
26951;SDS011;14507;52.418;13.398;2023-12-04T06:47:21;63.58;;;26.65;;
26951;SDS011;14507;52.418;13.398;2023-12-04T06:49:48;60.40;;;25.33;;
26951;SDS011;14507;52.418;13.398;2023-12-04T06:52:14;58.90;;;25.73;;
26951;SDS011;14507;52.418;13.398;2023-12-04T06:54:39;58.65;;;25.52;;
26951;SDS011;14507;52.418;13.398;2023-12-04T06:57:05;53.55;;;23.63;;
26951;SDS011;14507;52.418;13.398;2023-12-04T06:59:30;62.08;;;25.33;;
26951;SDS011;14507;52.418;13.398;2023-12-04T07:01:56;58.88;;;25.33;;
26951;SDS011;14507;52.418;13.398;2023-12-04T07:04:22;54.45;;;23.45;;
26951;SDS011;14507;52.418;13.398;2023-12-04T07:06:48;58.60;;;24.75;;
26951;SDS011;14507;52.418;13.398;2023-12-04T07:09:14;57.67;;;24.35;;
26951;SDS011;14507;52.418;13.398;2023-12-04T07:11:40;54.67;;;24.08;;
26951;SDS011;14507;52.418;13.398;2023-12-04T07:14:05;56.45;;;24.33;;
26951;SDS011;14507;52.418;13.398;2023-12-04T07:16:38;61.33;;;25.83;;
26951;SDS011;14507;52.418;13.398;2023-12-04T07:19:07;53.65;;;23.10;;
26951;SDS011;14507;52.418;13.398;2023-12-04T07:21:33;59.65;;;23.85;;
26951;SDS011;14507;52.418;13.398;2023-12-04T07:23:59;60.70;;;25.52;;
26951;SDS011;14507;52.418;13.398;2023-12-04T07:26:24;57.40;;;25.33;;
26951;SDS011;14507;52.418;13.398;2023-12-04T07:28:50;58.03;;;24.63;;
26951;SDS011;14507;52.418;13.398;2023-12-04T07:31:15;57.17;;;23.85;;
26951;SDS011;14507;52.418;13.398;2023-12-04T07:33:41;57.22;;;24.83;;
26951;SDS011;14507;52.418;13.398;2023-12-04T07:36:07;58.53;;;25.55;;
26951;SDS011;14507;52.418;13.398;2023-12-04T07:38:32;62.22;;;25.55;;
26951;SDS011;14507;52.418;13.398;2023-12-04T07:40:58;60.03;;;25.05;;
26951;SDS011;14507;52.418;13.398;2023-12-04T07:43:24;59.25;;;25.13;;
26951;SDS011;14507;52.418;13.398;2023-12-04T07:45:49;53.28;;;23.23;;
26951;SDS011;14507;52.418;13.398;2023-12-04T07:48:15;60.53;;;24.67;;
26951;SDS011;14507;52.418;13.398;2023-12-04T07:50:41;54.67;;;23.25;;
26951;SDS011;14507;52.418;13.398;2023-12-04T07:53:07;52.03;;;23.83;;
26951;SDS011;14507;52.418;13.398;2023-12-04T07:55:35;52.65;;;23.20;;
26951;SDS011;14507;52.418;13.398;2023-12-04T07:58:00;49.38;;;21.55;;
26951;SDS011;14507;52.418;13.398;2023-12-04T08:00:26;55.03;;;22.63;;
26951;SDS011;14507;52.418;13.398;2023-12-04T08:02:51;49.70;;;23.40;;
26951;SDS011;14507;52.418;13.398;2023-12-04T08:05:17;55.65;;;24.27;;
26951;SDS011;14507;52.418;13.398;2023-12-04T08:07:43;55.60;;;24.23;;
26951;SDS011;14507;52.418;13.398;2023-12-04T08:10:08;52.67;;;24.13;;
26951;SDS011;14507;52.418;13.398;2023-12-04T08:12:34;54.72;;;24.35;;
26951;SDS011;14507;52.418;13.398;2023-12-04T08:15:00;50.75;;;22.75;;
26951;SDS011;14507;52.418;13.398;2023-12-04T08:17:26;56.92;;;24.30;;
26951;SDS011;14507;52.418;13.398;2023-12-04T08:19:52;53.40;;;23.98;;
26951;SDS011;14507;52.418;13.398;2023-12-04T08:22:19;53.08;;;22.98;;
26951;SDS011;14507;52.418;13.398;2023-12-04T08:24:44;48.97;;;23.02;;
26951;SDS011;14507;52.418;13.398;2023-12-04T08:27:10;50.53;;;22.20;;
26951;SDS011;14507;52.418;13.398;2023-12-04T08:29:36;51.95;;;22.52;;
26951;SDS011;14507;52.418;13.398;2023-12-04T08:32:01;51.67;;;22.60;;
26951;SDS011;14507;52.418;13.398;2023-12-04T08:34:27;47.88;;;22.23;;
26951;SDS011;14507;52.418;13.398;2023-12-04T08:36:53;55.10;;;23.52;;
26951;SDS011;14507;52.418;13.398;2023-12-04T08:39:18;53.28;;;22.05;;
26951;SDS011;14507;52.418;13.398;2023-12-04T08:41:45;50.90;;;22.35;;
26951;SDS011;14507;52.418;13.398;2023-12-04T08:46:38;50.50;;;21.55;;
26951;SDS011;14507;52.418;13.398;2023-12-04T08:49:03;50.10;;;22.45;;
26951;SDS011;14507;52.418;13.398;2023-12-04T08:51:29;50.58;;;22.92;;
26951;SDS011;14507;52.418;13.398;2023-12-04T08:53:55;51.83;;;23.05;;
26951;SDS011;14507;52.418;13.398;2023-12-04T08:56:22;50.95;;;22.95;;
26951;SDS011;14507;52.418;13.398;2023-12-04T08:58:48;47.63;;;21.25;;
26951;SDS011;14507;52.418;13.398;2023-12-04T09:01:15;50.30;;;22.47;;
26951;SDS011;14507;52.418;13.398;2023-12-04T09:03:41;49.67;;;22.02;;
26951;SDS011;14507;52.418;13.398;2023-12-04T09:06:06;57.20;;;22.65;;
26951;SDS011;14507;52.418;13.398;2023-12-04T09:08:32;53.03;;;23.02;;
26951;SDS011;14507;52.418;13.398;2023-12-04T09:10:58;52.45;;;23.50;;
26951;SDS011;14507;52.418;13.398;2023-12-04T09:13:23;54.35;;;23.10;;
26951;SDS011;14507;52.418;13.398;2023-12-04T09:15:49;50.83;;;22.98;;
26951;SDS011;14507;52.418;13.398;2023-12-04T09:18:15;50.65;;;21.73;;
26951;SDS011;14507;52.418;13.398;2023-12-04T09:20:40;48.47;;;21.75;;
26951;SDS011;14507;52.418;13.398;2023-12-04T09:23:06;48.20;;;22.48;;
26951;SDS011;14507;52.418;13.398;2023-12-04T09:25:32;47.28;;;22.08;;
26951;SDS011;14507;52.418;13.398;2023-12-04T09:27:57;47.35;;;21.90;;
26951;SDS011;14507;52.418;13.398;2023-12-04T09:30:23;45.45;;;21.67;;
26951;SDS011;14507;52.418;13.398;2023-12-04T09:32:49;46.08;;;21.60;;
26951;SDS011;14507;52.418;13.398;2023-12-04T09:35:14;46.38;;;21.77;;
26951;SDS011;14507;52.418;13.398;2023-12-04T09:37:40;46.58;;;22.10;;
26951;SDS011;14507;52.418;13.398;2023-12-04T09:40:06;45.50;;;21.38;;
26951;SDS011;14507;52.418;13.398;2023-12-04T09:42:33;47.57;;;22.27;;
26951;SDS011;14507;52.418;13.398;2023-12-04T09:44:59;50.00;;;21.52;;
26951;SDS011;14507;52.418;13.398;2023-12-04T09:47:26;42.75;;;20.65;;
26951;SDS011;14507;52.418;13.398;2023-12-04T09:49:52;47.60;;;21.42;;
26951;SDS011;14507;52.418;13.398;2023-12-04T09:52:20;45.33;;;21.08;;
26951;SDS011;14507;52.418;13.398;2023-12-04T09:54:45;45.70;;;21.23;;
26951;SDS011;14507;52.418;13.398;2023-12-04T09:57:11;45.15;;;21.00;;
26951;SDS011;14507;52.418;13.398;2023-12-04T09:59:40;44.35;;;19.95;;
26951;SDS011;14507;52.418;13.398;2023-12-04T10:02:07;42.23;;;20.50;;
26951;SDS011;14507;52.418;13.398;2023-12-04T10:04:33;45.20;;;19.42;;
26951;SDS011;14507;52.418;13.398;2023-12-04T10:06:59;43.30;;;20.25;;
26951;SDS011;14507;52.418;13.398;2023-12-04T10:09:25;48.28;;;21.02;;
26951;SDS011;14507;52.418;13.398;2023-12-04T10:11:51;44.00;;;20.38;;
26951;SDS011;14507;52.418;13.398;2023-12-04T10:14:20;45.33;;;20.85;;
26951;SDS011;14507;52.418;13.398;2023-12-04T10:16:47;44.78;;;19.40;;
26951;SDS011;14507;52.418;13.398;2023-12-04T10:21:45;42.33;;;21.17;;
26951;SDS011;14507;52.418;13.398;2023-12-04T10:24:12;44.88;;;19.98;;
26951;SDS011;14507;52.418;13.398;2023-12-04T10:26:51;44.50;;;19.60;;
26951;SDS011;14507;52.418;13.398;2023-12-04T10:29:17;47.45;;;19.48;;
26951;SDS011;14507;52.418;13.398;2023-12-04T10:31:43;39.20;;;18.88;;
26951;SDS011;14507;52.418;13.398;2023-12-04T10:34:08;40.88;;;19.58;;
26951;SDS011;14507;52.418;13.398;2023-12-04T10:36:37;50.75;;;22.08;;
26951;SDS011;14507;52.418;13.398;2023-12-04T10:39:03;49.25;;;21.98;;
26951;SDS011;14507;52.418;13.398;2023-12-04T10:41:32;39.45;;;18.73;;
26951;SDS011;14507;52.418;13.398;2023-12-04T10:43:58;41.67;;;18.75;;
26951;SDS011;14507;52.418;13.398;2023-12-04T10:46:26;34.83;;;17.85;;
26951;SDS011;14507;52.418;13.398;2023-12-04T10:48:52;38.75;;;17.83;;
26951;SDS011;14507;52.418;13.398;2023-12-04T10:51:18;33.97;;;16.73;;
26951;SDS011;14507;52.418;13.398;2023-12-04T10:53:46;35.00;;;16.83;;
26951;SDS011;14507;52.418;13.398;2023-12-04T10:56:19;34.70;;;17.65;;
26951;SDS011;14507;52.418;13.398;2023-12-04T10:58:51;38.38;;;17.35;;
26951;SDS011;14507;52.418;13.398;2023-12-04T11:03:44;34.80;;;16.27;;
26951;SDS011;14507;52.418;13.398;2023-12-04T11:06:14;39.80;;;16.98;;
26951;SDS011;14507;52.418;13.398;2023-12-04T11:08:42;38.00;;;17.88;;
26951;SDS011;14507;52.418;13.398;2023-12-04T11:11:12;35.22;;;16.48;;
26951;SDS011;14507;52.418;13.398;2023-12-04T11:13:45;31.55;;;16.08;;
26951;SDS011;14507;52.418;13.398;2023-12-04T11:19:28;33.70;;;16.10;;
26951;SDS011;14507;52.418;13.398;2023-12-04T11:22:03;39.17;;;18.17;;
26951;SDS011;14507;52.418;13.398;2023-12-04T11:24:32;38.63;;;17.35;;
26951;SDS011;14507;52.418;13.398;2023-12-04T11:26:57;35.17;;;17.27;;
26951;SDS011;14507;52.418;13.398;2023-12-04T11:29:24;32.47;;;16.15;;
26951;SDS011;14507;52.418;13.398;2023-12-04T11:31:50;35.40;;;17.05;;
26951;SDS011;14507;52.418;13.398;2023-12-04T11:34:16;34.17;;;16.67;;
26951;SDS011;14507;52.418;13.398;2023-12-04T11:36:41;33.58;;;16.67;;
26951;SDS011;14507;52.418;13.398;2023-12-04T11:39:09;34.50;;;16.20;;
26951;SDS011;14507;52.418;13.398;2023-12-04T11:41:36;34.88;;;16.88;;
26951;SDS011;14507;52.418;13.398;2023-12-04T11:44:02;40.13;;;16.98;;
26951;SDS011;14507;52.418;13.398;2023-12-04T11:46:28;34.72;;;17.20;;
26951;SDS011;14507;52.418;13.398;2023-12-04T11:48:56;31.37;;;15.90;;
26951;SDS011;14507;52.418;13.398;2023-12-04T11:54:12;36.15;;;16.55;;
26951;SDS011;14507;52.418;13.398;2023-12-04T11:56:40;34.83;;;18.08;;
26951;SDS011;14507;52.418;13.398;2023-12-04T11:59:06;35.72;;;17.02;;
26951;SDS011;14507;52.418;13.398;2023-12-04T12:01:33;32.20;;;16.65;;
26951;SDS011;14507;52.418;13.398;2023-12-04T12:04:00;32.97;;;15.75;;
26951;SDS011;14507;52.418;13.398;2023-12-04T12:06:27;32.20;;;16.45;;
26951;SDS011;14507;52.418;13.398;2023-12-04T12:08:52;33.05;;;15.23;;
26951;SDS011;14507;52.418;13.398;2023-12-04T12:11:20;35.33;;;16.00;;
26951;SDS011;14507;52.418;13.398;2023-12-04T12:13:48;33.80;;;16.05;;
26951;SDS011;14507;52.418;13.398;2023-12-04T12:16:14;37.13;;;16.83;;
26951;SDS011;14507;52.418;13.398;2023-12-04T12:18:40;31.63;;;15.82;;
26951;SDS011;14507;52.418;13.398;2023-12-04T12:21:06;33.92;;;16.17;;
26951;SDS011;14507;52.418;13.398;2023-12-04T12:23:32;33.17;;;15.80;;
26951;SDS011;14507;52.418;13.398;2023-12-04T12:25:59;33.20;;;16.25;;
26951;SDS011;14507;52.418;13.398;2023-12-04T12:28:25;29.85;;;15.98;;
26951;SDS011;14507;52.418;13.398;2023-12-04T12:30:50;30.02;;;16.05;;
26951;SDS011;14507;52.418;13.398;2023-12-04T12:33:19;33.83;;;16.20;;
26951;SDS011;14507;52.418;13.398;2023-12-04T12:35:45;30.10;;;15.70;;
26951;SDS011;14507;52.418;13.398;2023-12-04T12:38:12;30.90;;;16.37;;
26951;SDS011;14507;52.418;13.398;2023-12-04T12:40:38;30.35;;;15.52;;
26951;SDS011;14507;52.418;13.398;2023-12-04T12:43:07;31.85;;;15.95;;
26951;SDS011;14507;52.418;13.398;2023-12-04T12:45:40;34.65;;;15.57;;
26951;SDS011;14507;52.418;13.398;2023-12-04T12:48:12;32.58;;;16.20;;
26951;SDS011;14507;52.418;13.398;2023-12-04T12:50:39;29.65;;;15.27;;
26951;SDS011;14507;52.418;13.398;2023-12-04T12:53:06;34.75;;;16.58;;
26951;SDS011;14507;52.418;13.398;2023-12-04T12:55:31;39.20;;;18.33;;
26951;SDS011;14507;52.418;13.398;2023-12-04T12:57:57;38.25;;;16.60;;
26951;SDS011;14507;52.418;13.398;2023-12-04T13:00:23;43.85;;;19.27;;
26951;SDS011;14507;52.418;13.398;2023-12-04T13:02:51;36.55;;;16.52;;
26951;SDS011;14507;52.418;13.398;2023-12-04T13:05:18;35.72;;;16.25;;
26951;SDS011;14507;52.418;13.398;2023-12-04T13:07:45;33.08;;;16.33;;
26951;SDS011;14507;52.418;13.398;2023-12-04T13:10:11;32.25;;;16.27;;
26951;SDS011;14507;52.418;13.398;2023-12-04T13:12:36;33.65;;;16.23;;
26951;SDS011;14507;52.418;13.398;2023-12-04T13:15:02;35.35;;;16.77;;
26951;SDS011;14507;52.418;13.398;2023-12-04T13:17:28;38.50;;;17.95;;
26951;SDS011;14507;52.418;13.398;2023-12-04T13:19:54;36.95;;;17.00;;
26951;SDS011;14507;52.418;13.398;2023-12-04T13:22:20;40.25;;;16.92;;
26951;SDS011;14507;52.418;13.398;2023-12-04T13:24:45;33.10;;;16.70;;
26951;SDS011;14507;52.418;13.398;2023-12-04T13:27:11;30.42;;;16.90;;
26951;SDS011;14507;52.418;13.398;2023-12-04T13:29:38;33.83;;;16.23;;
26951;SDS011;14507;52.418;13.398;2023-12-04T13:32:04;34.83;;;17.48;;
26951;SDS011;14507;52.418;13.398;2023-12-04T13:34:30;33.10;;;17.15;;
26951;SDS011;14507;52.418;13.398;2023-12-04T13:36:56;32.65;;;17.17;;
26951;SDS011;14507;52.418;13.398;2023-12-04T13:39:22;32.67;;;17.00;;
26951;SDS011;14507;52.418;13.398;2023-12-04T13:42:01;34.45;;;17.98;;
26951;SDS011;14507;52.418;13.398;2023-12-04T13:44:45;35.80;;;17.02;;
26951;SDS011;14507;52.418;13.398;2023-12-04T13:47:11;34.13;;;17.13;;
26951;SDS011;14507;52.418;13.398;2023-12-04T13:49:37;34.55;;;17.75;;
26951;SDS011;14507;52.418;13.398;2023-12-04T13:52:03;35.65;;;16.63;;
26951;SDS011;14507;52.418;13.398;2023-12-04T13:54:32;34.28;;;16.52;;
26951;SDS011;14507;52.418;13.398;2023-12-04T13:57:12;35.67;;;17.05;;
26951;SDS011;14507;52.418;13.398;2023-12-04T13:59:46;33.38;;;16.85;;
26951;SDS011;14507;52.418;13.398;2023-12-04T14:02:11;33.97;;;16.67;;
26951;SDS011;14507;52.418;13.398;2023-12-04T14:04:37;35.42;;;17.40;;
26951;SDS011;14507;52.418;13.398;2023-12-04T14:07:04;34.00;;;16.80;;
26951;SDS011;14507;52.418;13.398;2023-12-04T14:09:30;32.30;;;17.08;;
26951;SDS011;14507;52.418;13.398;2023-12-04T14:11:57;34.35;;;16.58;;
26951;SDS011;14507;52.418;13.398;2023-12-04T14:14:23;34.63;;;16.75;;
26951;SDS011;14507;52.418;13.398;2023-12-04T14:16:48;33.65;;;17.27;;